Terminal Aerodrome Forecast
Issued by NWS Lake Charles, LA

Home | Current Version | Previous Version | Text Only | Print | Product List | Glossary On
Versions: 1 2 3 4 5 6 7 8 9 10 11 12 13 14 15 16 17 18 19 20 21
000
FTUS44 KLCH 290520
TAFLFT
TAF
KLFT 290520Z 2906/3006 VRB04KT P6SM FEW040 SCT250
     FM291100 VRB03KT 4SM BR SCT025 SCT250
     FM291500 19006KT P6SM BKN035
     FM291800 21007KT P6SM VCTS BKN050CB
     FM300200 17004KT P6SM SCT040 BKN200=

USA.gov is the U.S. government's official web portal to all federal, state and local government web resources and services.